Salome, Arizona
Current Conditions -  °F | °C
As of 4:55 PM on Tuesday 21 Oct 2014 (Local Time) from KBXK Reporting Station
Clear Clear  
Wind Chill: 86°   Ceiling: Unl
Heat Index: 86°   Visibility: 10mi
Dew Point: 46°   Wind: 0mph
Humidity: 25%   Direction: NA
Pressure: 29.79"   Gusts: NA
Location:  33.78°N, 113.62°W
Report Text: KBXK 212355Z AUTO 00000KT 10SM CLR 30/08 A2979 RMK AO1
Loading
Personal Weather Stations






























Interactive Weather Map
Tropical Storm Tracking
New forecast layout! Learn more

10-Day Weather Forecast

Advertisements
Track Severe Weather on mobile